Terminal Aerodrome Forecast
Issued by NWS

Current Version | Previous Version | Graphics & Text | Print | Product List | Glossary On
Versions: 1 2 3 4 5 6 7 8 9 10 11 12 13 14 15 16 17 18 19 20 21 22 23 24 25 26 27
000
FTUS41 KILN 171100
TAFLCK
TAF
KLCK 171129Z 1712/1812 26013G20KT P6SM VCSH OVC014
     FM171600 27012KT P6SM OVC015
     FM172200 28008KT P6SM OVC018=

USA.gov is the U.S. government's official web portal to all federal, state and local government web resources and services.